Verdon, Nebraska
Current Conditions -  °F | °C
As of 7:09 AM on Saturday 25 Oct 2014 (Local Time) from KFNB Reporting Station
Haze Haze  
Wind Chill: 48°   Ceiling: Unl
Heat Index: 48°   Visibility: 3mi
Dew Point: 47°   Wind: 3mph
Humidity: 96%   Direction: 300°WNW
Pressure: 30.05"   Gusts: NA
Location:  40.15°N, 95.71°W
Report Text: KFNB 251209Z AUTO 30003KT 3SM BR SCT002 09/08 A3005 RMK AO2 T00890083
Loading
Personal Weather Stations






























Interactive Weather Map
Tropical Storm Tracking
New forecast layout! Learn more

10-Day Weather Forecast

Advertisements
Track Severe Weather on mobile